sensor_id;sensor_type;location;lat;lon;timestamp;temperature;humidity
57857;DHT22;43683;48.650;9.290;2022-09-16T00:00:35;11.90;93.30
57857;DHT22;43683;48.650;9.290;2022-09-16T00:03:01;11.90;93.60
57857;DHT22;43683;48.650;9.290;2022-09-16T00:05:27;11.90;93.30
57857;DHT22;43683;48.650;9.290;2022-09-16T00:07:53;11.90;93.30
57857;DHT22;43683;48.650;9.290;2022-09-16T00:10:20;11.90;93.30
57857;DHT22;43683;48.650;9.290;2022-09-16T00:12:46;11.90;93.30
57857;DHT22;43683;48.650;9.290;2022-09-16T00:15:11;12.00;93.40
57857;DHT22;43683;48.650;9.290;2022-09-16T00:17:37;11.90;93.40
57857;DHT22;43683;48.650;9.290;2022-09-16T00:20:04;11.90;93.40
57857;DHT22;43683;48.650;9.290;2022-09-16T00:22:30;11.90;93.40
57857;DHT22;43683;48.650;9.290;2022-09-16T00:24:55;11.90;93.40
57857;DHT22;43683;48.650;9.290;2022-09-16T00:27:21;11.90;93.50
57857;DHT22;43683;48.650;9.290;2022-09-16T00:29:47;11.90;93.60
57857;DHT22;43683;48.650;9.290;2022-09-16T00:32:12;11.80;93.60
57857;DHT22;43683;48.650;9.290;2022-09-16T00:34:38;11.80;93.60
57857;DHT22;43683;48.650;9.290;2022-09-16T00:37:04;11.90;93.60
57857;DHT22;43683;48.650;9.290;2022-09-16T00:39:33;11.90;93.50
57857;DHT22;43683;48.650;9.290;2022-09-16T00:41:59;12.00;93.50
57857;DHT22;43683;48.650;9.290;2022-09-16T00:47:19;12.10;93.50
57857;DHT22;43683;48.650;9.290;2022-09-16T00:49:45;12.10;93.40
57857;DHT22;43683;48.650;9.290;2022-09-16T00:52:11;12.10;93.40
57857;DHT22;43683;48.650;9.290;2022-09-16T00:54:39;12.10;93.50
57857;DHT22;43683;48.650;9.290;2022-09-16T00:57:06;12.00;93.50
57857;DHT22;43683;48.650;9.290;2022-09-16T00:59:36;12.00;93.60
57857;DHT22;43683;48.650;9.290;2022-09-16T01:02:07;12.00;93.60
57857;DHT22;43683;48.650;9.290;2022-09-16T01:04:38;12.00;93.70
57857;DHT22;43683;48.650;9.290;2022-09-16T01:07:05;11.90;93.70
57857;DHT22;43683;48.650;9.290;2022-09-16T01:09:30;12.00;93.70
57857;DHT22;43683;48.650;9.290;2022-09-16T01:11:56;12.00;93.70
57857;DHT22;43683;48.650;9.290;2022-09-16T01:14:24;12.00;93.70
57857;DHT22;43683;48.650;9.290;2022-09-16T01:17:20;12.00;93.70
57857;DHT22;43683;48.650;9.290;2022-09-16T01:20:02;12.00;93.70
57857;DHT22;43683;48.650;9.290;2022-09-16T01:31:06;11.70;94.00
57857;DHT22;43683;48.650;9.290;2022-09-16T01:34:10;11.70;94.00
57857;DHT22;43683;48.650;9.290;2022-09-16T01:37:02;11.70;94.00
57857;DHT22;43683;48.650;9.290;2022-09-16T01:39:48;11.70;93.90
57857;DHT22;43683;48.650;9.290;2022-09-16T01:42:25;11.70;93.90
57857;DHT22;43683;48.650;9.290;2022-09-16T01:45:12;11.60;94.00
57857;DHT22;43683;48.650;9.290;2022-09-16T01:50:42;11.60;94.00
57857;DHT22;43683;48.650;9.290;2022-09-16T01:53:26;11.70;93.90
57857;DHT22;43683;48.650;9.290;2022-09-16T01:56:09;11.80;93.80
57857;DHT22;43683;48.650;9.290;2022-09-16T01:58:39;11.90;93.70
57857;DHT22;43683;48.650;9.290;2022-09-16T02:01:09;11.90;93.60
57857;DHT22;43683;48.650;9.290;2022-09-16T02:03:38;11.90;93.60
57857;DHT22;43683;48.650;9.290;2022-09-16T02:06:08;11.90;93.60
57857;DHT22;43683;48.650;9.290;2022-09-16T02:08:40;11.80;93.70
57857;DHT22;43683;48.650;9.290;2022-09-16T02:11:10;11.70;93.90
57857;DHT22;43683;48.650;9.290;2022-09-16T02:13:43;11.60;94.00
57857;DHT22;43683;48.650;9.290;2022-09-16T02:16:14;11.50;94.10
57857;DHT22;43683;48.650;9.290;2022-09-16T02:18:43;11.60;94.20
57857;DHT22;43683;48.650;9.290;2022-09-16T02:21:12;11.70;94.10
57857;DHT22;43683;48.650;9.290;2022-09-16T02:23:47;11.80;94.30
57857;DHT22;43683;48.650;9.290;2022-09-16T02:26:18;11.90;93.80
57857;DHT22;43683;48.650;9.290;2022-09-16T02:28:47;12.00;93.70
57857;DHT22;43683;48.650;9.290;2022-09-16T02:31:16;12.00;93.60
57857;DHT22;43683;48.650;9.290;2022-09-16T02:33:54;12.00;93.70
57857;DHT22;43683;48.650;9.290;2022-09-16T02:36:21;12.00;93.70
57857;DHT22;43683;48.650;9.290;2022-09-16T02:38:51;12.00;93.70
57857;DHT22;43683;48.650;9.290;2022-09-16T02:41:18;12.00;93.80
57857;DHT22;43683;48.650;9.290;2022-09-16T02:43:44;12.00;93.80
57857;DHT22;43683;48.650;9.290;2022-09-16T02:51:32;11.90;93.70
57857;DHT22;43683;48.650;9.290;2022-09-16T02:54:15;12.00;93.80
57857;DHT22;43683;48.650;9.290;2022-09-16T02:56:42;12.00;93.70
57857;DHT22;43683;48.650;9.290;2022-09-16T02:59:10;12.00;93.70
57857;DHT22;43683;48.650;9.290;2022-09-16T03:01:42;12.00;93.70
57857;DHT22;43683;48.650;9.290;2022-09-16T03:04:10;12.00;93.70
57857;DHT22;43683;48.650;9.290;2022-09-16T03:06:36;12.10;93.60
57857;DHT22;43683;48.650;9.290;2022-09-16T03:09:05;12.10;93.60
57857;DHT22;43683;48.650;9.290;2022-09-16T03:17:55;12.30;93.50
57857;DHT22;43683;48.650;9.290;2022-09-16T03:20:53;12.30;93.40
57857;DHT22;43683;48.650;9.290;2022-09-16T03:23:32;12.40;93.40
57857;DHT22;43683;48.650;9.290;2022-09-16T03:35:03;12.30;93.50
57857;DHT22;43683;48.650;9.290;2022-09-16T03:37:32;12.30;93.50
57857;DHT22;43683;48.650;9.290;2022-09-16T03:40:04;12.30;93.50
57857;DHT22;43683;48.650;9.290;2022-09-16T03:42:31;12.30;93.50
57857;DHT22;43683;48.650;9.290;2022-09-16T03:44:57;12.30;93.50
57857;DHT22;43683;48.650;9.290;2022-09-16T03:47:22;12.30;93.50
57857;DHT22;43683;48.650;9.290;2022-09-16T03:49:48;12.30;93.60
57857;DHT22;43683;48.650;9.290;2022-09-16T03:52:15;12.30;93.60
57857;DHT22;43683;48.650;9.290;2022-09-16T03:54:43;12.30;93.60
57857;DHT22;43683;48.650;9.290;2022-09-16T03:57:08;12.30;93.60
57857;DHT22;43683;48.650;9.290;2022-09-16T03:59:34;12.30;93.60
57857;DHT22;43683;48.650;9.290;2022-09-16T04:02:00;12.30;93.60
57857;DHT22;43683;48.650;9.290;2022-09-16T04:04:25;12.30;93.60
57857;DHT22;43683;48.650;9.290;2022-09-16T04:06:51;12.30;93.60
57857;DHT22;43683;48.650;9.290;2022-09-16T04:09:16;12.30;93.50
57857;DHT22;43683;48.650;9.290;2022-09-16T04:11:42;12.40;93.50
57857;DHT22;43683;48.650;9.290;2022-09-16T04:14:08;12.40;93.50
57857;DHT22;43683;48.650;9.290;2022-09-16T04:16:33;12.40;93.50
57857;DHT22;43683;48.650;9.290;2022-09-16T04:18:59;12.40;93.50
57857;DHT22;43683;48.650;9.290;2022-09-16T04:21:25;12.40;93.50
57857;DHT22;43683;48.650;9.290;2022-09-16T04:23:51;12.40;93.50
57857;DHT22;43683;48.650;9.290;2022-09-16T04:26:18;12.40;93.50
57857;DHT22;43683;48.650;9.290;2022-09-16T04:28:44;12.40;93.40
57857;DHT22;43683;48.650;9.290;2022-09-16T04:31:11;12.40;93.40
57857;DHT22;43683;48.650;9.290;2022-09-16T04:33:37;12.40;93.40
57857;DHT22;43683;48.650;9.290;2022-09-16T04:36:05;12.40;93.40
57857;DHT22;43683;48.650;9.290;2022-09-16T04:38:31;12.50;93.40
57857;DHT22;43683;48.650;9.290;2022-09-16T04:41:05;12.50;93.30
57857;DHT22;43683;48.650;9.290;2022-09-16T04:43:30;12.50;93.30
57857;DHT22;43683;48.650;9.290;2022-09-16T04:45:56;12.50;93.30
57857;DHT22;43683;48.650;9.290;2022-09-16T04:48:22;12.50;93.30
57857;DHT22;43683;48.650;9.290;2022-09-16T04:50:48;12.50;93.60
57857;DHT22;43683;48.650;9.290;2022-09-16T04:53:13;12.50;93.30
57857;DHT22;43683;48.650;9.290;2022-09-16T04:55:39;12.50;93.30
57857;DHT22;43683;48.650;9.290;2022-09-16T04:58:04;12.60;93.40
57857;DHT22;43683;48.650;9.290;2022-09-16T05:00:30;12.60;93.30
57857;DHT22;43683;48.650;9.290;2022-09-16T05:02:55;12.60;93.30
57857;DHT22;43683;48.650;9.290;2022-09-16T05:05:21;12.60;93.30
57857;DHT22;43683;48.650;9.290;2022-09-16T05:07:46;12.60;93.30
57857;DHT22;43683;48.650;9.290;2022-09-16T05:10:12;12.60;93.30
57857;DHT22;43683;48.650;9.290;2022-09-16T05:12:37;12.60;93.20
57857;DHT22;43683;48.650;9.290;2022-09-16T05:15:03;12.70;93.20
57857;DHT22;43683;48.650;9.290;2022-09-16T05:17:29;12.70;93.10
57857;DHT22;43683;48.650;9.290;2022-09-16T05:19:56;12.70;93.10
57857;DHT22;43683;48.650;9.290;2022-09-16T05:22:22;12.70;93.10
57857;DHT22;43683;48.650;9.290;2022-09-16T05:24:47;12.60;93.20
57857;DHT22;43683;48.650;9.290;2022-09-16T05:27:13;12.60;93.30
57857;DHT22;43683;48.650;9.290;2022-09-16T05:29:39;12.60;93.40
57857;DHT22;43683;48.650;9.290;2022-09-16T05:32:04;12.60;93.40
57857;DHT22;43683;48.650;9.290;2022-09-16T05:34:30;12.70;93.40
57857;DHT22;43683;48.650;9.290;2022-09-16T05:36:56;12.70;93.30
57857;DHT22;43683;48.650;9.290;2022-09-16T05:39:22;12.70;93.30
57857;DHT22;43683;48.650;9.290;2022-09-16T05:41:51;12.70;93.20
57857;DHT22;43683;48.650;9.290;2022-09-16T05:44:16;12.70;93.20
57857;DHT22;43683;48.650;9.290;2022-09-16T05:46:42;12.70;93.20
57857;DHT22;43683;48.650;9.290;2022-09-16T05:49:08;12.70;93.30
57857;DHT22;43683;48.650;9.290;2022-09-16T05:51:36;12.60;93.40
57857;DHT22;43683;48.650;9.290;2022-09-16T05:54:02;12.50;93.50
57857;DHT22;43683;48.650;9.290;2022-09-16T05:56:28;12.40;93.60
57857;DHT22;43683;48.650;9.290;2022-09-16T05:58:58;12.40;93.60
57857;DHT22;43683;48.650;9.290;2022-09-16T06:01:28;12.40;93.50
57857;DHT22;43683;48.650;9.290;2022-09-16T06:03:55;12.40;93.40
57857;DHT22;43683;48.650;9.290;2022-09-16T06:06:38;12.40;93.30
57857;DHT22;43683;48.650;9.290;2022-09-16T06:11:34;12.30;93.40
57857;DHT22;43683;48.650;9.290;2022-09-16T06:14:00;12.30;93.40
57857;DHT22;43683;48.650;9.290;2022-09-16T06:16:27;12.30;93.30
57857;DHT22;43683;48.650;9.290;2022-09-16T06:18:54;12.20;93.20
57857;DHT22;43683;48.650;9.290;2022-09-16T06:21:20;12.20;93.20
57857;DHT22;43683;48.650;9.290;2022-09-16T06:23:46;12.30;93.20
57857;DHT22;43683;48.650;9.290;2022-09-16T06:26:14;12.30;93.10
57857;DHT22;43683;48.650;9.290;2022-09-16T06:28:40;12.30;93.10
57857;DHT22;43683;48.650;9.290;2022-09-16T06:31:09;12.40;93.10
57857;DHT22;43683;48.650;9.290;2022-09-16T06:33:35;12.40;93.10
57857;DHT22;43683;48.650;9.290;2022-09-16T06:36:05;12.40;93.10
57857;DHT22;43683;48.650;9.290;2022-09-16T06:38:32;12.40;93.00
57857;DHT22;43683;48.650;9.290;2022-09-16T06:40:59;12.40;93.00
57857;DHT22;43683;48.650;9.290;2022-09-16T06:43:25;12.40;93.00
57857;DHT22;43683;48.650;9.290;2022-09-16T06:45:52;12.40;93.00
57857;DHT22;43683;48.650;9.290;2022-09-16T06:48:20;12.40;93.00
57857;DHT22;43683;48.650;9.290;2022-09-16T06:50:45;12.40;93.00
57857;DHT22;43683;48.650;9.290;2022-09-16T06:53:10;12.40;93.00
57857;DHT22;43683;48.650;9.290;2022-09-16T06:55:36;12.30;93.10
57857;DHT22;43683;48.650;9.290;2022-09-16T06:58:02;12.30;93.10
57857;DHT22;43683;48.650;9.290;2022-09-16T07:00:27;12.30;93.10
57857;DHT22;43683;48.650;9.290;2022-09-16T07:02:55;12.30;93.10
57857;DHT22;43683;48.650;9.290;2022-09-16T07:05:21;12.20;93.10
57857;DHT22;43683;48.650;9.290;2022-09-16T07:07:46;12.10;93.20
57857;DHT22;43683;48.650;9.290;2022-09-16T07:10:13;12.00;93.20
57857;DHT22;43683;48.650;9.290;2022-09-16T07:12:39;12.00;93.30
57857;DHT22;43683;48.650;9.290;2022-09-16T07:15:04;11.90;93.40
57857;DHT22;43683;48.650;9.290;2022-09-16T07:17:30;11.80;93.40
57857;DHT22;43683;48.650;9.290;2022-09-16T07:19:56;11.80;93.30
57857;DHT22;43683;48.650;9.290;2022-09-16T07:22:21;11.90;93.30
57857;DHT22;43683;48.650;9.290;2022-09-16T07:24:47;11.90;93.20
57857;DHT22;43683;48.650;9.290;2022-09-16T07:27:12;11.90;93.20
57857;DHT22;43683;48.650;9.290;2022-09-16T07:29:38;11.90;93.10
57857;DHT22;43683;48.650;9.290;2022-09-16T07:32:04;11.90;93.20
57857;DHT22;43683;48.650;9.290;2022-09-16T07:34:29;11.80;93.20
57857;DHT22;43683;48.650;9.290;2022-09-16T07:36:55;11.80;93.20
57857;DHT22;43683;48.650;9.290;2022-09-16T07:39:21;11.90;93.20
57857;DHT22;43683;48.650;9.290;2022-09-16T07:41:47;11.90;93.10
57857;DHT22;43683;48.650;9.290;2022-09-16T07:44:14;11.90;93.00
57857;DHT22;43683;48.650;9.290;2022-09-16T07:46:41;11.90;93.00
57857;DHT22;43683;48.650;9.290;2022-09-16T07:49:09;11.90;93.10
57857;DHT22;43683;48.650;9.290;2022-09-16T07:51:35;11.90;93.00
57857;DHT22;43683;48.650;9.290;2022-09-16T07:54:06;11.90;93.00
57857;DHT22;43683;48.650;9.290;2022-09-16T07:56:35;12.00;93.00
57857;DHT22;43683;48.650;9.290;2022-09-16T07:59:03;11.90;93.00
57857;DHT22;43683;48.650;9.290;2022-09-16T08:01:29;11.90;93.00
57857;DHT22;43683;48.650;9.290;2022-09-16T08:03:56;12.00;93.00
57857;DHT22;43683;48.650;9.290;2022-09-16T08:06:24;12.10;92.90
57857;DHT22;43683;48.650;9.290;2022-09-16T08:08:52;12.10;92.80
57857;DHT22;43683;48.650;9.290;2022-09-16T08:11:18;12.00;92.80
57857;DHT22;43683;48.650;9.290;2022-09-16T08:13:43;12.00;92.80
57857;DHT22;43683;48.650;9.290;2022-09-16T08:16:15;12.00;92.90
57857;DHT22;43683;48.650;9.290;2022-09-16T08:18:41;11.90;93.00
57857;DHT22;43683;48.650;9.290;2022-09-16T08:21:13;11.80;93.10
57857;DHT22;43683;48.650;9.290;2022-09-16T08:23:39;11.80;93.20
57857;DHT22;43683;48.650;9.290;2022-09-16T08:26:06;11.90;93.00
57857;DHT22;43683;48.650;9.290;2022-09-16T08:28:33;12.00;93.00
57857;DHT22;43683;48.650;9.290;2022-09-16T08:30:59;12.10;92.90
57857;DHT22;43683;48.650;9.290;2022-09-16T08:33:25;12.20;92.80
57857;DHT22;43683;48.650;9.290;2022-09-16T08:35:58;12.20;92.70
57857;DHT22;43683;48.650;9.290;2022-09-16T08:38:24;12.40;92.50
57857;DHT22;43683;48.650;9.290;2022-09-16T08:40:52;12.70;92.30
57857;DHT22;43683;48.650;9.290;2022-09-16T08:43:41;13.00;92.10
57857;DHT22;43683;48.650;9.290;2022-09-16T08:46:16;13.30;92.00
57857;DHT22;43683;48.650;9.290;2022-09-16T08:51:52;13.50;91.80
57857;DHT22;43683;48.650;9.290;2022-09-16T08:54:32;13.20;92.10
57857;DHT22;43683;48.650;9.290;2022-09-16T08:57:01;13.10;92.40
57857;DHT22;43683;48.650;9.290;2022-09-16T08:59:31;13.00;92.50
57857;DHT22;43683;48.650;9.290;2022-09-16T09:02:52;13.00;92.50
57857;DHT22;43683;48.650;9.290;2022-09-16T09:05:31;13.00;92.40
57857;DHT22;43683;48.650;9.290;2022-09-16T09:08:18;13.00;92.20
57857;DHT22;43683;48.650;9.290;2022-09-16T09:16:58;13.10;92.30
57857;DHT22;43683;48.650;9.290;2022-09-16T09:20:10;13.30;92.00
57857;DHT22;43683;48.650;9.290;2022-09-16T09:25:38;13.60;91.70
57857;DHT22;43683;48.650;9.290;2022-09-16T09:33:36;13.60;91.80
57857;DHT22;43683;48.650;9.290;2022-09-16T09:36:23;13.60;91.80
57857;DHT22;43683;48.650;9.290;2022-09-16T09:41:44;13.70;91.70
57857;DHT22;43683;48.650;9.290;2022-09-16T09:44:47;13.60;91.60
57857;DHT22;43683;48.650;9.290;2022-09-16T09:47:23;13.60;91.70
57857;DHT22;43683;48.650;9.290;2022-09-16T09:49:54;13.70;91.50
57857;DHT22;43683;48.650;9.290;2022-09-16T09:55:18;14.20;91.20
57857;DHT22;43683;48.650;9.290;2022-09-16T10:00:32;14.50;90.50
57857;DHT22;43683;48.650;9.290;2022-09-16T10:03:05;14.60;90.40
57857;DHT22;43683;48.650;9.290;2022-09-16T10:05:32;14.50;90.40
57857;DHT22;43683;48.650;9.290;2022-09-16T10:08:03;14.40;90.80
57857;DHT22;43683;48.650;9.290;2022-09-16T10:10:32;14.30;90.50
57857;DHT22;43683;48.650;9.290;2022-09-16T10:13:09;14.30;90.70
57857;DHT22;43683;48.650;9.290;2022-09-16T10:15:35;14.20;90.70
57857;DHT22;43683;48.650;9.290;2022-09-16T10:18:10;14.40;90.60
57857;DHT22;43683;48.650;9.290;2022-09-16T10:20:38;14.40;90.30
57857;DHT22;43683;48.650;9.290;2022-09-16T10:23:18;14.60;90.20
57857;DHT22;43683;48.650;9.290;2022-09-16T10:25:44;14.90;90.00
57857;DHT22;43683;48.650;9.290;2022-09-16T10:28:24;15.30;88.80
57857;DHT22;43683;48.650;9.290;2022-09-16T10:30:52;15.80;87.60
57857;DHT22;43683;48.650;9.290;2022-09-16T10:33:24;16.60;86.00
57857;DHT22;43683;48.650;9.290;2022-09-16T10:35:58;17.40;84.20
57857;DHT22;43683;48.650;9.290;2022-09-16T10:38:34;17.50;83.90
57857;DHT22;43683;48.650;9.290;2022-09-16T10:41:08;17.40;83.90
57857;DHT22;43683;48.650;9.290;2022-09-16T10:43:44;17.10;84.70
57857;DHT22;43683;48.650;9.290;2022-09-16T10:46:13;16.80;85.40
57857;DHT22;43683;48.650;9.290;2022-09-16T10:48:40;16.50;86.20
57857;DHT22;43683;48.650;9.290;2022-09-16T10:51:33;16.30;86.70
57857;DHT22;43683;48.650;9.290;2022-09-16T10:54:01;16.40;86.40
57857;DHT22;43683;48.650;9.290;2022-09-16T10:56:30;16.40;86.40
57857;DHT22;43683;48.650;9.290;2022-09-16T10:59:09;16.30;86.20
57857;DHT22;43683;48.650;9.290;2022-09-16T11:01:59;16.10;86.60
57857;DHT22;43683;48.650;9.290;2022-09-16T11:07:11;15.60;87.10
57857;DHT22;43683;48.650;9.290;2022-09-16T11:09:44;15.50;87.50
57857;DHT22;43683;48.650;9.290;2022-09-16T11:24:25;14.90;87.70
57857;DHT22;43683;48.650;9.290;2022-09-16T11:32:26;15.10;86.70
57857;DHT22;43683;48.650;9.290;2022-09-16T11:40:59;15.50;85.40
57857;DHT22;43683;48.650;9.290;2022-09-16T11:57:18;15.20;85.80
57857;DHT22;43683;48.650;9.290;2022-09-16T12:00:11;15.40;85.80
57857;DHT22;43683;48.650;9.290;2022-09-16T12:02:59;15.60;85.00
57857;DHT22;43683;48.650;9.290;2022-09-16T12:08:17;16.00;83.70
57857;DHT22;43683;48.650;9.290;2022-09-16T12:13:27;16.20;82.80
57857;DHT22;43683;48.650;9.290;2022-09-16T12:15:56;16.40;82.10
57857;DHT22;43683;48.650;9.290;2022-09-16T12:18:25;16.50;81.60
57857;DHT22;43683;48.650;9.290;2022-09-16T12:23:42;17.00;80.00
57857;DHT22;43683;48.650;9.290;2022-09-16T12:26:13;17.40;79.60
57857;DHT22;43683;48.650;9.290;2022-09-16T12:31:48;17.90;78.80
57857;DHT22;43683;48.650;9.290;2022-09-16T12:34:35;18.40;77.40
57857;DHT22;43683;48.650;9.290;2022-09-16T12:40:01;18.80;75.10
57857;DHT22;43683;48.650;9.290;2022-09-16T12:45:35;18.20;75.30
57857;DHT22;43683;48.650;9.290;2022-09-16T13:02:04;16.60;75.80
57857;DHT22;43683;48.650;9.290;2022-09-16T13:04:44;16.40;75.60
57857;DHT22;43683;48.650;9.290;2022-09-16T13:07:23;16.20;75.70
57857;DHT22;43683;48.650;9.290;2022-09-16T13:10:02;16.10;75.80
57857;DHT22;43683;48.650;9.290;2022-09-16T13:12:29;16.20;75.80
57857;DHT22;43683;48.650;9.290;2022-09-16T13:14:57;16.40;75.40
57857;DHT22;43683;48.650;9.290;2022-09-16T13:17:32;16.70;74.60
57857;DHT22;43683;48.650;9.290;2022-09-16T13:28:01;17.20;72.90
57857;DHT22;43683;48.650;9.290;2022-09-16T13:30:38;17.30;73.20
57857;DHT22;43683;48.650;9.290;2022-09-16T13:35:42;17.60;72.20
57857;DHT22;43683;48.650;9.290;2022-09-16T13:41:00;18.10;71.30
57857;DHT22;43683;48.650;9.290;2022-09-16T13:46:13;18.70;71.00
57857;DHT22;43683;48.650;9.290;2022-09-16T13:49:03;19.30;70.60
57857;DHT22;43683;48.650;9.290;2022-09-16T13:51:32;20.00;69.60
57857;DHT22;43683;48.650;9.290;2022-09-16T13:53:58;20.00;69.80
57857;DHT22;43683;48.650;9.290;2022-09-16T13:59:25;20.40;68.50
57857;DHT22;43683;48.650;9.290;2022-09-16T14:02:17;20.50;69.10
57857;DHT22;43683;48.650;9.290;2022-09-16T14:05:01;20.60;67.10
57857;DHT22;43683;48.650;9.290;2022-09-16T14:10:34;20.60;65.80
57857;DHT22;43683;48.650;9.290;2022-09-16T14:13:17;20.50;65.60
57857;DHT22;43683;48.650;9.290;2022-09-16T14:15:46;20.10;65.90
57857;DHT22;43683;48.650;9.290;2022-09-16T14:18:14;19.90;66.20
57857;DHT22;43683;48.650;9.290;2022-09-16T14:21:02;19.70;66.20
57857;DHT22;43683;48.650;9.290;2022-09-16T14:23:28;19.10;65.80
57857;DHT22;43683;48.650;9.290;2022-09-16T14:25:54;18.60;67.00
57857;DHT22;43683;48.650;9.290;2022-09-16T14:28:25;18.40;67.30
57857;DHT22;43683;48.650;9.290;2022-09-16T14:30:52;18.20;66.80
57857;DHT22;43683;48.650;9.290;2022-09-16T14:33:21;18.10;67.10
57857;DHT22;43683;48.650;9.290;2022-09-16T14:35:49;17.70;68.10
57857;DHT22;43683;48.650;9.290;2022-09-16T14:38:18;17.20;68.80
57857;DHT22;43683;48.650;9.290;2022-09-16T14:40:45;16.80;69.10
57857;DHT22;43683;48.650;9.290;2022-09-16T14:43:19;16.50;69.50
57857;DHT22;43683;48.650;9.290;2022-09-16T14:45:49;16.40;69.40
57857;DHT22;43683;48.650;9.290;2022-09-16T14:48:17;16.30;69.70
57857;DHT22;43683;48.650;9.290;2022-09-16T14:50:46;16.80;69.30
57857;DHT22;43683;48.650;9.290;2022-09-16T14:53:41;17.00;67.90
57857;DHT22;43683;48.650;9.290;2022-09-16T14:56:17;17.10;67.40
57857;DHT22;43683;48.650;9.290;2022-09-16T14:58:44;17.50;67.30
57857;DHT22;43683;48.650;9.290;2022-09-16T15:01:19;17.60;66.90
57857;DHT22;43683;48.650;9.290;2022-09-16T15:04:02;17.90;66.20
57857;DHT22;43683;48.650;9.290;2022-09-16T15:06:35;17.90;65.80
57857;DHT22;43683;48.650;9.290;2022-09-16T15:09:14;18.10;66.00
57857;DHT22;43683;48.650;9.290;2022-09-16T15:11:48;18.00;65.60
57857;DHT22;43683;48.650;9.290;2022-09-16T15:14:16;17.60;65.70
57857;DHT22;43683;48.650;9.290;2022-09-16T15:17:09;17.30;66.10
57857;DHT22;43683;48.650;9.290;2022-09-16T15:19:35;17.40;66.20
57857;DHT22;43683;48.650;9.290;2022-09-16T15:22:06;18.50;65.80
57857;DHT22;43683;48.650;9.290;2022-09-16T15:24:33;19.40;64.10
57857;DHT22;43683;48.650;9.290;2022-09-16T15:27:03;20.00;63.50
57857;DHT22;43683;48.650;9.290;2022-09-16T15:29:31;20.40;63.00
57857;DHT22;43683;48.650;9.290;2022-09-16T15:32:21;20.60;62.00
57857;DHT22;43683;48.650;9.290;2022-09-16T15:35:45;20.60;60.50
57857;DHT22;43683;48.650;9.290;2022-09-16T15:37:45;20.10;60.30
57857;DHT22;43683;48.650;9.290;2022-09-16T15:40:28;19.30;61.80
57857;DHT22;43683;48.650;9.290;2022-09-16T15:43:12;18.80;61.90
57857;DHT22;43683;48.650;9.290;2022-09-16T15:45:39;18.30;62.30
57857;DHT22;43683;48.650;9.290;2022-09-16T15:48:17;17.90;63.50
57857;DHT22;43683;48.650;9.290;2022-09-16T15:53:36;17.50;63.40
57857;DHT22;43683;48.650;9.290;2022-09-16T15:56:19;17.10;63.40
57857;DHT22;43683;48.650;9.290;2022-09-16T15:58:48;16.80;63.80
57857;DHT22;43683;48.650;9.290;2022-09-16T16:01:46;16.60;63.90
57857;DHT22;43683;48.650;9.290;2022-09-16T16:04:21;16.40;63.30
57857;DHT22;43683;48.650;9.290;2022-09-16T16:06:56;16.30;63.50
57857;DHT22;43683;48.650;9.290;2022-09-16T16:11:58;16.00;63.80
57857;DHT22;43683;48.650;9.290;2022-09-16T16:14:26;16.00;63.80
57857;DHT22;43683;48.650;9.290;2022-09-16T16:16:55;15.90;63.80
57857;DHT22;43683;48.650;9.290;2022-09-16T16:19:22;15.80;63.90
57857;DHT22;43683;48.650;9.290;2022-09-16T16:21:47;15.70;64.20
57857;DHT22;43683;48.650;9.290;2022-09-16T16:24:16;15.60;64.50
57857;DHT22;43683;48.650;9.290;2022-09-16T16:26:42;15.50;64.70
57857;DHT22;43683;48.650;9.290;2022-09-16T16:29:07;15.60;64.80
57857;DHT22;43683;48.650;9.290;2022-09-16T16:31:33;15.50;64.90
57857;DHT22;43683;48.650;9.290;2022-09-16T16:34:01;15.60;65.00
57857;DHT22;43683;48.650;9.290;2022-09-16T16:36:27;15.70;65.20
57857;DHT22;43683;48.650;9.290;2022-09-16T16:38:52;15.80;65.10
57857;DHT22;43683;48.650;9.290;2022-09-16T16:41:22;15.90;64.70
57857;DHT22;43683;48.650;9.290;2022-09-16T16:43:48;15.80;64.50
57857;DHT22;43683;48.650;9.290;2022-09-16T16:46:14;15.70;64.80
57857;DHT22;43683;48.650;9.290;2022-09-16T16:48:41;15.60;64.90
57857;DHT22;43683;48.650;9.290;2022-09-16T16:51:09;15.50;65.10
57857;DHT22;43683;48.650;9.290;2022-09-16T16:53:36;15.30;65.40
57857;DHT22;43683;48.650;9.290;2022-09-16T16:58:32;14.80;66.50
57857;DHT22;43683;48.650;9.290;2022-09-16T17:01:13;14.60;66.90
57857;DHT22;43683;48.650;9.290;2022-09-16T17:03:40;14.50;67.30
57857;DHT22;43683;48.650;9.290;2022-09-16T17:06:07;14.30;67.80
57857;DHT22;43683;48.650;9.290;2022-09-16T17:08:33;14.10;68.20
57857;DHT22;43683;48.650;9.290;2022-09-16T17:11:14;13.90;68.40
57857;DHT22;43683;48.650;9.290;2022-09-16T17:13:43;13.90;68.40
57857;DHT22;43683;48.650;9.290;2022-09-16T17:16:10;13.80;68.40
57857;DHT22;43683;48.650;9.290;2022-09-16T17:18:38;13.70;68.70
57857;DHT22;43683;48.650;9.290;2022-09-16T17:21:07;13.50;69.00
57857;DHT22;43683;48.650;9.290;2022-09-16T17:23:33;13.40;69.40
57857;DHT22;43683;48.650;9.290;2022-09-16T17:26:00;13.20;69.70
57857;DHT22;43683;48.650;9.290;2022-09-16T17:28:26;13.10;70.20
57857;DHT22;43683;48.650;9.290;2022-09-16T17:30:51;12.80;70.70
57857;DHT22;43683;48.650;9.290;2022-09-16T17:33:17;12.70;71.40
57857;DHT22;43683;48.650;9.290;2022-09-16T17:35:42;12.50;71.80
57857;DHT22;43683;48.650;9.290;2022-09-16T17:38:09;12.50;71.90
57857;DHT22;43683;48.650;9.290;2022-09-16T17:40:34;12.60;72.10
57857;DHT22;43683;48.650;9.290;2022-09-16T17:43:00;12.60;72.00
57857;DHT22;43683;48.650;9.290;2022-09-16T17:45:26;12.60;72.00
57857;DHT22;43683;48.650;9.290;2022-09-16T17:47:51;12.60;72.00
57857;DHT22;43683;48.650;9.290;2022-09-16T17:50:17;12.70;72.10
57857;DHT22;43683;48.650;9.290;2022-09-16T17:52:43;12.70;72.70
57857;DHT22;43683;48.650;9.290;2022-09-16T17:55:10;12.70;71.80
57857;DHT22;43683;48.650;9.290;2022-09-16T17:57:35;12.80;71.70
57857;DHT22;43683;48.650;9.290;2022-09-16T18:00:03;12.90;71.50
57857;DHT22;43683;48.650;9.290;2022-09-16T18:02:28;13.00;71.50
57857;DHT22;43683;48.650;9.290;2022-09-16T18:04:54;13.00;71.40
57857;DHT22;43683;48.650;9.290;2022-09-16T18:07:19;13.10;71.40
57857;DHT22;43683;48.650;9.290;2022-09-16T18:09:45;13.10;71.40
57857;DHT22;43683;48.650;9.290;2022-09-16T18:12:10;13.10;71.40
57857;DHT22;43683;48.650;9.290;2022-09-16T18:14:36;12.90;71.70
57857;DHT22;43683;48.650;9.290;2022-09-16T18:17:02;12.20;74.20
57857;DHT22;43683;48.650;9.290;2022-09-16T18:19:27;11.70;76.10
57857;DHT22;43683;48.650;9.290;2022-09-16T18:21:53;11.40;77.30
57857;DHT22;43683;48.650;9.290;2022-09-16T18:24:19;11.20;77.90
57857;DHT22;43683;48.650;9.290;2022-09-16T18:26:44;11.00;78.30
57857;DHT22;43683;48.650;9.290;2022-09-16T18:29:12;11.00;78.70
57857;DHT22;43683;48.650;9.290;2022-09-16T18:31:43;10.90;79.10
57857;DHT22;43683;48.650;9.290;2022-09-16T18:34:09;10.90;79.60